createdAt,value
2018-03-16T00:00:01.787Z,44.37
2018-03-16T00:02:29.953Z,43.17
2018-03-16T00:04:58.158Z,45.57
2018-03-16T00:07:27.514Z,43.40
2018-03-16T00:09:55.785Z,41.33
2018-03-16T00:12:24.096Z,44.20
2018-03-16T00:14:53.315Z,42.23
2018-03-16T00:17:21.502Z,43.83
2018-03-16T00:19:49.757Z,42.17
2018-03-16T00:22:29.847Z,43.53
2018-03-16T00:24:58.434Z,45.07
2018-03-16T00:27:27.047Z,41.53
2018-03-16T00:29:55.366Z,42.33
2018-03-16T00:32:23.743Z,41.57
2018-03-16T00:34:51.889Z,44.40
2018-03-16T00:37:20.834Z,42.57
2018-03-16T00:39:49.114Z,41.63
2018-03-16T00:42:17.270Z,47.03
2018-03-16T00:44:45.468Z,42.83
2018-03-16T00:47:13.769Z,41.00
2018-03-16T00:49:41.914Z,42.17
2018-03-16T00:52:10.225Z,41.87
2018-03-16T00:54:38.468Z,42.27
2018-03-16T00:57:06.697Z,44.13
2018-03-16T00:59:35.627Z,41.77
2018-03-16T01:02:03.780Z,42.53
2018-03-16T01:04:31.942Z,41.30
2018-03-16T01:07:00.147Z,41.03
2018-03-16T01:09:28.441Z,44.20
2018-03-16T01:11:56.605Z,40.77
2018-03-16T01:14:24.962Z,42.47
2018-03-16T01:16:54.733Z,42.27
2018-03-16T01:19:22.890Z,43.63
2018-03-16T01:21:51.183Z,46.13
2018-03-16T01:24:20.539Z,46.33
2018-03-16T01:26:48.900Z,43.10
2018-03-16T01:29:17.180Z,40.67
2018-03-16T01:31:46.372Z,38.90
2018-03-16T01:34:14.607Z,39.57
2018-03-16T01:36:42.890Z,43.53
2018-03-16T01:39:11.951Z,39.23
2018-03-16T01:41:40.229Z,40.57
2018-03-16T01:44:09.222Z,39.83
2018-03-16T01:46:37.475Z,38.20
2018-03-16T01:49:06.235Z,38.47
2018-03-16T01:51:35.682Z,38.43
2018-03-16T01:54:03.825Z,37.43
2018-03-16T01:56:32.087Z,38.07
2018-03-16T01:59:00.279Z,37.93
2018-03-16T02:01:28.454Z,35.73
2018-03-16T02:03:56.598Z,38.20
2018-03-16T02:06:25.514Z,37.33
2018-03-16T02:08:53.655Z,37.03
2018-03-16T02:11:22.584Z,38.77
2018-03-16T02:13:50.858Z,36.80
2018-03-16T02:16:19.024Z,38.87
2018-03-16T02:18:47.178Z,36.60
2018-03-16T02:21:18.411Z,34.43
2018-03-16T02:23:46.952Z,35.53
2018-03-16T02:26:15.183Z,34.37
2018-03-16T02:28:44.263Z,33.70
2018-03-16T02:31:13.335Z,32.33
2018-03-16T02:33:42.013Z,30.77
2018-03-16T02:36:10.193Z,31.40
2018-03-16T02:38:38.503Z,31.83
2018-03-16T02:41:07.557Z,31.67
2018-03-16T02:43:35.743Z,30.47
2018-03-16T02:46:03.890Z,31.37
2018-03-16T02:48:32.046Z,30.33
2018-03-16T02:51:00.203Z,28.77
2018-03-16T02:53:28.373Z,28.23
2018-03-16T02:55:56.512Z,28.50
2018-03-16T02:58:24.687Z,28.73
2018-03-16T03:00:52.808Z,28.80
2018-03-16T03:03:20.947Z,28.97
2018-03-16T03:05:49.837Z,29.30
2018-03-16T03:08:17.968Z,30.33
2018-03-16T03:10:46.222Z,30.87
2018-03-16T03:13:14.518Z,29.37
2018-03-16T03:15:42.654Z,31.57
2018-03-16T03:18:11.603Z,31.07
2018-03-16T03:20:39.776Z,30.97
2018-03-16T03:23:08.004Z,30.30
2018-03-16T03:25:36.927Z,30.80
2018-03-16T03:28:05.147Z,30.30
2018-03-16T03:30:34.154Z,30.43
2018-03-16T03:33:03.263Z,30.93
2018-03-16T03:35:31.997Z,31.50
2018-03-16T03:38:00.235Z,32.47
2018-03-16T03:40:28.492Z,30.93
2018-03-16T03:42:57.429Z,33.53
2018-03-16T03:45:25.720Z,30.80
2018-03-16T03:47:53.936Z,32.27
2018-03-16T03:50:23.042Z,32.33
2018-03-16T03:52:51.210Z,31.80
2018-03-16T03:55:20.104Z,31.27
2018-03-16T03:57:48.372Z,31.97
2018-03-16T04:00:17.271Z,31.53
2018-03-16T04:02:45.411Z,32.47
2018-03-16T04:05:13.725Z,31.10
2018-03-16T04:07:41.889Z,30.47
2018-03-16T04:10:10.795Z,30.27
2018-03-16T04:12:38.981Z,30.67
2018-03-16T04:15:07.250Z,29.40
2018-03-16T04:17:36.230Z,28.90
2018-03-16T04:20:04.408Z,27.67
2018-03-16T04:22:33.573Z,29.47
2018-03-16T04:25:01.980Z,27.13
2018-03-16T04:27:30.913Z,27.00
2018-03-16T04:29:59.056Z,28.73
2018-03-16T04:32:27.223Z,30.80
2018-03-16T04:34:55.668Z,30.43
2018-03-16T04:37:25.322Z,30.67
2018-03-16T04:39:53.595Z,30.50
2018-03-16T04:42:23.210Z,30.00
2018-03-16T04:44:51.367Z,32.70
2018-03-16T04:47:19.535Z,30.13
2018-03-16T04:49:47.710Z,31.73
2018-03-16T04:52:16.027Z,31.87
2018-03-16T04:54:44.173Z,30.23
2018-03-16T04:57:12.406Z,29.50
2018-03-16T04:59:40.619Z,30.13
2018-03-16T05:02:09.061Z,28.57
2018-03-16T05:04:38.146Z,27.93
2018-03-16T05:07:06.452Z,27.93
2018-03-16T05:09:35.360Z,26.90
2018-03-16T05:12:03.539Z,26.83
2018-03-16T05:14:31.900Z,26.67
2018-03-16T05:17:00.045Z,27.73
2018-03-16T05:19:28.270Z,27.17
2018-03-16T05:21:56.420Z,26.50
2018-03-16T05:24:24.578Z,26.40
2018-03-16T05:26:57.631Z,24.70
2018-03-16T05:29:25.892Z,24.53
2018-03-16T05:31:54.063Z,25.77
2018-03-16T05:34:22.663Z,25.30
2018-03-16T05:36:50.819Z,26.13
2018-03-16T05:39:18.961Z,27.13
2018-03-16T05:41:47.149Z,26.33
2018-03-16T05:44:15.572Z,27.87
2018-03-16T05:46:43.794Z,28.03
2018-03-16T05:49:12.716Z,26.83
2018-03-16T05:51:40.923Z,26.30
2018-03-16T05:54:09.090Z,24.63
2018-03-16T05:56:37.272Z,23.43
2018-03-16T05:59:05.467Z,24.17
2018-03-16T06:01:33.693Z,23.87
2018-03-16T06:04:01.942Z,23.03
2018-03-16T06:06:31.148Z,25.17
2018-03-16T06:08:59.424Z,23.50
2018-03-16T06:11:27.753Z,24.40
2018-03-16T06:13:56.000Z,24.40
2018-03-16T06:16:24.234Z,25.17
2018-03-16T06:18:52.469Z,23.80
2018-03-16T06:21:20.653Z,23.40
2018-03-16T06:23:48.964Z,24.23
2018-03-16T06:26:17.313Z,24.70
2018-03-16T06:28:45.450Z,24.90
2018-03-16T06:31:13.739Z,24.83
2018-03-16T06:33:42.802Z,24.10
2018-03-16T06:36:10.963Z,24.20
2018-03-16T06:38:39.132Z,24.10
2018-03-16T06:41:07.717Z,24.57
2018-03-16T06:43:35.984Z,24.47
2018-03-16T06:46:06.241Z,24.20
2018-03-16T06:48:34.407Z,24.97
2018-03-16T06:51:02.656Z,24.47
2018-03-16T06:53:31.940Z,25.20
2018-03-16T06:56:00.184Z,24.53
2018-03-16T06:58:28.541Z,25.90
2018-03-16T07:00:56.710Z,25.70
2018-03-16T07:03:24.872Z,25.13
2018-03-16T07:05:53.148Z,24.60
2018-03-16T07:08:21.347Z,25.20
2018-03-16T07:10:49.678Z,23.73
2018-03-16T07:13:17.932Z,23.73
2018-03-16T07:15:46.245Z,25.10
2018-03-16T07:18:14.401Z,24.00
2018-03-16T07:20:43.516Z,26.23
2018-03-16T07:23:11.741Z,24.03
2018-03-16T07:25:40.691Z,26.87
2018-03-16T07:28:09.028Z,26.37
2018-03-16T07:30:37.174Z,26.33
2018-03-16T07:33:05.355Z,26.23
2018-03-16T07:35:34.220Z,25.83
2018-03-16T07:38:02.379Z,24.70
2018-03-16T07:40:30.531Z,27.77
2018-03-16T07:42:59.573Z,75.00
2018-03-16T07:45:33.446Z,34.37
2018-03-16T07:48:01.582Z,37.23
2018-03-16T07:50:29.896Z,29.70
2018-03-16T07:52:58.649Z,28.47
2018-03-16T07:55:27.682Z,26.70
2018-03-16T07:57:56.645Z,27.37
2018-03-16T08:00:25.570Z,25.10
2018-03-16T08:02:53.926Z,27.07
2018-03-16T08:05:22.847Z,24.60
2018-03-16T08:07:51.122Z,26.40
2018-03-16T08:10:19.210Z,23.43
2018-03-16T08:12:47.591Z,21.27
2018-03-16T08:15:15.840Z,23.47
2018-03-16T08:17:43.941Z,21.70
2018-03-16T08:20:12.219Z,23.20
2018-03-16T08:22:40.520Z,22.37
2018-03-16T08:25:08.657Z,22.83
2018-03-16T08:27:37.013Z,22.33
2018-03-16T08:30:05.166Z,22.20
2018-03-16T08:32:34.075Z,22.63
2018-03-16T08:35:02.442Z,21.73
2018-03-16T08:37:31.359Z,22.80
2018-03-16T08:39:59.536Z,21.93
2018-03-16T08:42:27.683Z,20.00
2018-03-16T08:44:56.633Z,18.90
2018-03-16T08:47:24.778Z,17.77
2018-03-16T08:49:53.222Z,17.90
2018-03-16T08:52:22.341Z,17.80
2018-03-16T08:54:50.645Z,16.37
2018-03-16T08:57:18.906Z,17.80
2018-03-16T08:59:50.674Z,18.07
2018-03-16T09:02:18.906Z,18.07
2018-03-16T09:04:47.833Z,18.00
2018-03-16T09:07:16.027Z,18.10
2018-03-16T09:09:44.164Z,17.90
2018-03-16T09:12:12.312Z,19.53
2018-03-16T09:14:41.230Z,17.73
2018-03-16T09:17:09.390Z,17.47
2018-03-16T09:19:37.653Z,17.57
2018-03-16T09:22:06.587Z,17.77
2018-03-16T09:24:34.738Z,17.83
2018-03-16T09:27:02.882Z,18.73
2018-03-16T09:29:31.846Z,19.13
2018-03-16T09:32:00.074Z,20.90
2018-03-16T09:34:28.337Z,20.30
2018-03-16T09:36:57.262Z,19.77
2018-03-16T09:39:25.423Z,19.60
2018-03-16T09:41:53.603Z,19.73
2018-03-16T09:44:21.895Z,21.07
2018-03-16T09:46:50.056Z,20.10
2018-03-16T09:49:18.243Z,21.07
2018-03-16T09:51:46.712Z,19.47
2018-03-16T09:54:14.949Z,19.63
2018-03-16T09:56:43.864Z,19.70
2018-03-16T09:59:12.051Z,17.93
2018-03-16T10:01:40.209Z,16.97
2018-03-16T10:04:08.369Z,15.37
2018-03-16T10:06:36.586Z,15.00
2018-03-16T10:09:04.802Z,13.60
2018-03-16T10:11:32.990Z,12.43
2018-03-16T10:14:01.218Z,12.90
2018-03-16T10:16:29.526Z,12.20
2018-03-16T10:18:57.804Z,11.90
2018-03-16T10:21:26.114Z,11.00
2018-03-16T10:23:54.264Z,11.03
2018-03-16T10:26:22.443Z,10.60
2018-03-16T10:28:51.544Z,10.13
2018-03-16T10:31:20.476Z,10.10
2018-03-16T10:33:49.236Z,10.10
2018-03-16T10:36:17.418Z,8.87
2018-03-16T10:38:45.648Z,9.53
2018-03-16T10:41:13.879Z,8.87
2018-03-16T10:43:42.599Z,9.03
2018-03-16T10:46:10.737Z,8.93
2018-03-16T10:48:38.970Z,8.03
2018-03-16T10:51:07.142Z,8.47
2018-03-16T10:53:35.303Z,8.07
2018-03-16T10:56:03.562Z,7.97
2018-03-16T10:58:31.835Z,8.50
2018-03-16T11:01:00.016Z,9.40
2018-03-16T11:03:33.995Z,8.53
2018-03-16T11:06:02.279Z,8.63
2018-03-16T11:08:31.010Z,8.70
2018-03-16T11:10:59.925Z,8.77
2018-03-16T11:13:29.368Z,7.53
2018-03-16T11:15:57.506Z,7.03
2018-03-16T11:18:25.789Z,7.20
2018-03-16T11:20:53.936Z,5.97
2018-03-16T11:23:23.078Z,6.13
2018-03-16T11:25:51.379Z,5.73
2018-03-16T11:28:19.530Z,6.07
2018-03-16T11:30:47.710Z,5.93
2018-03-16T11:33:15.935Z,7.53
2018-03-16T11:35:44.551Z,6.77
2018-03-16T11:38:12.715Z,6.17
2018-03-16T11:40:40.880Z,5.87
2018-03-16T11:43:10.072Z,6.03
2018-03-16T11:45:38.972Z,5.70
2018-03-16T11:48:07.119Z,5.40
2018-03-16T11:50:35.386Z,4.80
2018-03-16T11:53:03.822Z,4.83
2018-03-16T11:55:32.193Z,4.40
2018-03-16T11:58:00.458Z,4.97
2018-03-16T12:00:28.737Z,5.33
2018-03-16T12:02:57.054Z,4.63
2018-03-16T12:05:25.284Z,4.80
2018-03-16T12:07:53.425Z,4.93
2018-03-16T12:10:21.724Z,5.17
2018-03-16T12:12:50.657Z,4.47
2018-03-16T12:15:18.821Z,4.27
2018-03-16T12:17:47.000Z,4.57
2018-03-16T12:20:15.152Z,4.77
2018-03-16T12:22:43.445Z,4.17
2018-03-16T12:25:11.636Z,4.70
2018-03-16T12:27:39.776Z,4.47
2018-03-16T12:30:08.870Z,4.83
2018-03-16T12:32:37.122Z,3.97
2018-03-16T12:35:06.062Z,3.80
2018-03-16T12:37:34.225Z,4.27
2018-03-16T12:40:02.679Z,4.43
2018-03-16T12:44:59.770Z,4.27
2018-03-16T12:47:27.937Z,4.17
2018-03-16T12:49:56.073Z,4.37
2018-03-16T12:52:24.238Z,4.60
2018-03-16T12:54:52.413Z,4.43
2018-03-16T12:57:20.568Z,4.10
2018-03-16T12:59:48.791Z,3.60
2018-03-16T13:02:17.566Z,3.90
2018-03-16T13:04:46.626Z,3.97
2018-03-16T13:07:14.876Z,3.80
2018-03-16T13:09:43.128Z,4.23
2018-03-16T13:12:11.289Z,4.33
2018-03-16T13:14:40.335Z,3.97
2018-03-16T13:17:08.496Z,3.73
2018-03-16T13:19:36.745Z,3.87
2018-03-16T13:22:05.020Z,3.77
2018-03-16T13:24:33.211Z,4.20
2018-03-16T13:27:01.428Z,4.17
2018-03-16T13:29:29.708Z,4.60
2018-03-16T13:31:57.979Z,5.93
2018-03-16T13:34:26.165Z,5.07
2018-03-16T13:36:54.433Z,4.90
2018-03-16T13:39:22.604Z,5.20
2018-03-16T13:41:50.829Z,5.07
2018-03-16T13:44:19.107Z,5.73
2018-03-16T13:46:47.277Z,5.33
2018-03-16T13:49:15.438Z,5.53
2018-03-16T13:51:44.465Z,5.40
2018-03-16T13:54:13.374Z,5.40
2018-03-16T13:56:41.525Z,5.93
2018-03-16T13:59:09.673Z,5.30
2018-03-16T14:01:38.789Z,5.07
2018-03-16T14:04:07.106Z,5.23
2018-03-16T14:06:35.275Z,5.67
2018-03-16T14:09:03.448Z,5.60
2018-03-16T14:11:31.608Z,5.57
2018-03-16T14:13:59.953Z,5.97
2018-03-16T14:16:28.107Z,5.13
2018-03-16T14:18:57.202Z,4.53
2018-03-16T14:21:26.817Z,4.47
2018-03-16T14:23:55.784Z,5.30
2018-03-16T14:26:23.963Z,4.80
2018-03-16T14:28:52.211Z,4.30
2018-03-16T14:31:20.736Z,4.13
2018-03-16T14:33:49.717Z,4.20
2018-03-16T14:36:18.042Z,3.77
2018-03-16T14:38:46.253Z,4.27
2018-03-16T14:41:15.166Z,4.33
2018-03-16T14:43:44.064Z,4.13
2018-03-16T14:46:12.339Z,3.87
2018-03-16T14:48:41.458Z,4.23
2018-03-16T14:51:09.612Z,4.70
2018-03-16T14:53:37.783Z,4.37
2018-03-16T14:56:06.695Z,4.50
2018-03-16T14:58:34.884Z,4.30
2018-03-16T15:01:03.211Z,3.93
2018-03-16T15:03:31.349Z,4.83
2018-03-16T15:05:59.495Z,4.50
2018-03-16T15:08:27.785Z,4.33
2018-03-16T15:10:55.914Z,4.57
2018-03-16T15:13:24.823Z,3.50
2018-03-16T15:15:53.057Z,2.37
2018-03-16T15:18:21.195Z,2.63
2018-03-16T15:20:49.357Z,2.20
2018-03-16T15:23:17.549Z,2.70
2018-03-16T15:25:45.855Z,2.43
2018-03-16T15:28:13.997Z,7.10
2018-03-16T15:30:42.254Z,8.57
2018-03-16T15:33:10.404Z,9.07
2018-03-16T15:35:39.349Z,8.50
2018-03-16T15:38:07.529Z,8.47
2018-03-16T15:40:35.673Z,8.80
2018-03-16T15:43:04.771Z,8.90
2018-03-16T15:45:32.933Z,9.57
2018-03-16T15:48:01.209Z,9.63
2018-03-16T15:50:29.368Z,9.97
2018-03-16T15:52:58.297Z,10.20
2018-03-16T15:55:27.165Z,9.40
2018-03-16T15:57:55.312Z,11.43
2018-03-16T16:00:24.271Z,11.23
2018-03-16T16:02:53.232Z,11.10
2018-03-16T16:05:21.405Z,10.73
2018-03-16T16:07:50.172Z,12.47
2018-03-16T16:10:18.332Z,14.67
2018-03-16T16:12:47.241Z,14.67
2018-03-16T16:15:15.574Z,16.70
2018-03-16T16:17:43.736Z,17.40
2018-03-16T16:20:12.447Z,19.43
2018-03-16T16:22:40.767Z,19.60
2018-03-16T16:25:08.912Z,20.67
2018-03-16T16:27:37.053Z,19.50
2018-03-16T16:30:05.218Z,19.23
2018-03-16T16:32:33.648Z,19.83
2018-03-16T16:35:02.563Z,19.53
2018-03-16T16:37:30.738Z,19.40
2018-03-16T16:39:59.739Z,19.63
2018-03-16T16:42:28.186Z,21.07
2018-03-16T16:44:56.366Z,23.33
2018-03-16T16:47:24.539Z,23.73
2018-03-16T16:49:52.831Z,25.10
2018-03-16T16:52:21.006Z,26.17
2018-03-16T16:54:49.235Z,25.80
2018-03-16T16:57:17.384Z,26.97
2018-03-16T16:59:45.584Z,26.50
2018-03-16T17:02:13.746Z,27.73
2018-03-16T17:04:41.923Z,26.53
2018-03-16T17:07:10.235Z,28.30
2018-03-16T17:09:38.944Z,29.20
2018-03-16T17:12:07.125Z,31.83
2018-03-16T17:14:35.306Z,34.27
2018-03-16T17:17:03.521Z,35.87
2018-03-16T17:19:31.698Z,36.30
2018-03-16T17:22:00.627Z,37.43
2018-03-16T17:24:29.343Z,38.57
2018-03-16T17:26:57.581Z,39.47
2018-03-16T17:29:25.753Z,41.77
2018-03-16T17:31:54.496Z,42.90
2018-03-16T17:34:22.701Z,43.27
2018-03-16T17:36:50.908Z,47.10
2018-03-16T17:39:19.229Z,47.27
2018-03-16T17:41:47.379Z,45.77
2018-03-16T17:44:16.912Z,41.50
2018-03-16T17:46:45.838Z,43.87
2018-03-16T17:49:14.273Z,46.83
2018-03-16T17:51:42.453Z,46.97
2018-03-16T17:54:10.608Z,51.50
2018-03-16T17:56:38.777Z,49.47
2018-03-16T17:59:07.110Z,39.63
2018-03-16T18:01:35.395Z,36.27
2018-03-16T18:04:03.671Z,34.50
2018-03-16T18:06:31.840Z,35.43
2018-03-16T18:09:00.054Z,37.93
2018-03-16T18:11:28.376Z,38.10
2018-03-16T18:13:57.318Z,38.27
2018-03-16T18:16:25.561Z,40.90
2018-03-16T18:18:53.730Z,40.83
2018-03-16T18:21:21.986Z,42.57
2018-03-16T18:23:51.003Z,44.80
2018-03-16T18:26:19.182Z,42.53
2018-03-16T18:28:48.975Z,44.60
2018-03-16T18:31:17.878Z,42.30
2018-03-16T18:33:46.036Z,40.87
2018-03-16T18:36:14.225Z,44.47
2018-03-16T18:38:43.315Z,44.23
2018-03-16T18:41:12.351Z,43.43
2018-03-16T18:43:40.492Z,45.30
2018-03-16T18:46:08.877Z,43.20
2018-03-16T18:48:37.044Z,43.93
2018-03-16T18:51:05.248Z,40.60
2018-03-16T18:53:33.393Z,42.43
2018-03-16T18:56:04.301Z,43.47
2018-03-16T18:58:32.550Z,43.37
2018-03-16T19:01:01.598Z,43.30
2018-03-16T19:03:29.743Z,41.87
2018-03-16T19:05:58.046Z,41.80
2018-03-16T19:08:26.245Z,40.30
2018-03-16T19:10:55.160Z,40.53
2018-03-16T19:13:23.317Z,39.10
2018-03-16T19:15:51.579Z,38.33
2018-03-16T19:18:20.581Z,39.27
2018-03-16T19:20:48.778Z,37.20
2018-03-16T19:23:17.295Z,35.83
2018-03-16T19:25:46.206Z,36.17
2018-03-16T19:28:14.398Z,35.30
2018-03-16T19:30:42.648Z,33.60
2018-03-16T19:33:10.772Z,35.13
2018-03-16T19:35:39.001Z,34.20
2018-03-16T19:38:07.851Z,35.80
2018-03-16T19:40:36.012Z,35.93
2018-03-16T19:43:04.259Z,36.63
2018-03-16T19:45:32.579Z,36.53
2018-03-16T19:48:00.791Z,35.70
2018-03-16T19:50:29.780Z,35.03
2018-03-16T19:52:58.074Z,33.73
2018-03-16T19:55:26.638Z,34.37
2018-03-16T19:57:55.200Z,34.00
2018-03-16T20:00:24.123Z,35.70
2018-03-16T20:02:52.273Z,36.10
2018-03-16T20:05:21.558Z,37.17
2018-03-16T20:07:49.811Z,34.87
2018-03-16T20:10:18.092Z,36.47
2018-03-16T20:12:46.253Z,35.60
2018-03-16T20:15:14.396Z,36.13
2018-03-16T20:17:42.647Z,34.80
2018-03-16T20:20:11.827Z,35.13
2018-03-16T20:22:40.775Z,36.43
2018-03-16T20:25:08.919Z,36.70
2018-03-16T20:27:38.021Z,36.40
2018-03-16T20:30:06.283Z,37.30
2018-03-16T20:32:35.203Z,35.93
2018-03-16T20:35:03.437Z,36.40
2018-03-16T20:37:31.690Z,36.00
2018-03-16T20:39:59.826Z,37.40
2018-03-16T20:42:28.189Z,37.37
2018-03-16T20:45:00.072Z,35.90
2018-03-16T20:47:28.592Z,34.33
2018-03-16T20:49:58.331Z,36.03
2018-03-16T20:52:27.249Z,34.50
2018-03-16T20:54:55.418Z,35.87
2018-03-16T20:57:23.665Z,36.37
2018-03-16T20:59:51.813Z,34.93
2018-03-16T21:02:19.962Z,36.20
2018-03-16T21:04:48.246Z,36.20
2018-03-16T21:07:16.488Z,36.67
2018-03-16T21:09:44.774Z,38.40
2018-03-16T21:12:12.952Z,39.97
2018-03-16T21:14:41.203Z,41.03
2018-03-16T21:17:09.506Z,40.97
2018-03-16T21:19:37.787Z,42.60
2018-03-16T21:22:06.831Z,43.47
2018-03-16T21:24:35.083Z,44.03
2018-03-16T21:27:04.037Z,44.80
2018-03-16T21:29:32.753Z,43.43
2018-03-16T21:32:00.927Z,42.73
2018-03-16T21:34:29.076Z,43.87
2018-03-16T21:36:57.339Z,44.70
2018-03-16T21:39:25.538Z,44.27
2018-03-16T21:41:53.796Z,43.57
2018-03-16T21:44:21.954Z,43.27
2018-03-16T21:46:50.330Z,43.30
2018-03-16T21:49:19.386Z,42.70
2018-03-16T21:51:48.407Z,44.23
2018-03-16T21:54:17.457Z,44.83
2018-03-16T21:56:45.611Z,45.27
2018-03-16T21:59:13.763Z,45.27
2018-03-16T22:01:42.787Z,46.53
2018-03-16T22:04:11.032Z,44.43
2018-03-16T22:06:39.216Z,45.03
2018-03-16T22:09:07.603Z,43.63
2018-03-16T22:11:35.951Z,44.03
2018-03-16T22:14:04.943Z,42.43
2018-03-16T22:16:33.285Z,41.50
2018-03-16T22:19:01.424Z,41.63
2018-03-16T22:21:33.749Z,40.10
2018-03-16T22:24:02.733Z,40.97
2018-03-16T22:26:31.040Z,42.10
2018-03-16T22:28:59.789Z,41.00
2018-03-16T22:31:28.409Z,41.10
2018-03-16T22:33:57.407Z,42.37
2018-03-16T22:36:26.349Z,41.77
2018-03-16T22:38:56.211Z,41.37
2018-03-16T22:41:25.136Z,42.30
2018-03-16T22:43:53.405Z,41.27
2018-03-16T22:46:22.376Z,39.83
2018-03-16T22:48:51.307Z,39.27
2018-03-16T22:51:19.551Z,38.50
2018-03-16T22:53:47.774Z,39.03
2018-03-16T22:56:15.936Z,38.60
2018-03-16T22:58:44.105Z,38.73
2018-03-16T23:01:13.153Z,39.33
2018-03-16T23:03:42.067Z,38.07
2018-03-16T23:06:10.328Z,39.37
2018-03-16T23:08:38.582Z,40.00
2018-03-16T23:11:07.495Z,39.30
2018-03-16T23:13:35.715Z,38.17
2018-03-16T23:16:04.604Z,38.20
2018-03-16T23:18:33.057Z,38.30
2018-03-16T23:21:01.394Z,38.33
2018-03-16T23:23:30.460Z,37.53
2018-03-16T23:25:58.893Z,37.93
2018-03-16T23:28:27.067Z,39.63
2018-03-16T23:30:55.257Z,38.37
2018-03-16T23:33:23.413Z,40.30
2018-03-16T23:35:51.617Z,38.30
2018-03-16T23:38:19.987Z,37.93
2018-03-16T23:40:48.154Z,36.63
2018-03-16T23:43:16.445Z,38.57
2018-03-16T23:45:44.754Z,37.53
2018-03-16T23:48:13.350Z,38.60
2018-03-16T23:50:41.673Z,38.53
2018-03-16T23:53:09.822Z,37.53
2018-03-16T23:55:38.744Z,37.13
2018-03-16T23:58:06.910Z,37.87
